sensor_id;sensor_type;location;lat;lon;timestamp;pressure;altitude;pressure_sealevel;temperature;humidity
72570;BME280;60594;50.204;8.844;2022-10-31T00:00:58;100482.41;;;12.81;93.78
72570;BME280;60594;50.204;8.844;2022-10-31T00:03:38;100482.53;;;12.79;94.11
72570;BME280;60594;50.204;8.844;2022-10-31T00:06:04;100485.91;;;12.81;94.48
72570;BME280;60594;50.204;8.844;2022-10-31T00:08:31;100484.69;;;12.85;94.34
72570;BME280;60594;50.204;8.844;2022-10-31T00:10:57;100482.47;;;12.90;94.40
72570;BME280;60594;50.204;8.844;2022-10-31T00:13:25;100492.94;;;12.93;94.20
72570;BME280;60594;50.204;8.844;2022-10-31T00:15:52;100489.31;;;12.83;94.45
72570;BME280;60594;50.204;8.844;2022-10-31T00:18:18;100482.53;;;12.79;94.60
72570;BME280;60594;50.204;8.844;2022-10-31T00:20:45;100496.91;;;12.78;95.29
72570;BME280;60594;50.204;8.844;2022-10-31T00:23:11;100493.25;;;12.79;95.47
72570;BME280;60594;50.204;8.844;2022-10-31T00:25:40;100495.06;;;12.79;95.49
72570;BME280;60594;50.204;8.844;2022-10-31T00:28:10;100486.72;;;12.72;95.83
72570;BME280;60594;50.204;8.844;2022-10-31T00:30:37;100491.31;;;12.70;95.30
72570;BME280;60594;50.204;8.844;2022-10-31T00:33:04;100487.63;;;12.62;95.83
72570;BME280;60594;50.204;8.844;2022-10-31T00:35:32;100503.06;;;12.58;95.34
72570;BME280;60594;50.204;8.844;2022-10-31T00:37:59;100505.03;;;12.56;95.37
72570;BME280;60594;50.204;8.844;2022-10-31T00:40:26;100499.53;;;12.58;95.44
72570;BME280;60594;50.204;8.844;2022-10-31T00:42:53;100503.31;;;12.55;94.85
72570;BME280;60594;50.204;8.844;2022-10-31T00:45:20;100501.69;;;12.64;94.17
72570;BME280;60594;50.204;8.844;2022-10-31T00:47:48;100490.88;;;12.65;94.36
72570;BME280;60594;50.204;8.844;2022-10-31T00:50:16;100491.00;;;12.64;94.84
72570;BME280;60594;50.204;8.844;2022-10-31T00:52:43;100496.34;;;12.64;95.50
72570;BME280;60594;50.204;8.844;2022-10-31T00:55:10;100487.34;;;12.65;95.49
72570;BME280;60594;50.204;8.844;2022-10-31T00:57:37;100498.78;;;12.67;95.41
72570;BME280;60594;50.204;8.844;2022-10-31T01:00:05;100502.81;;;12.61;95.65
72570;BME280;60594;50.204;8.844;2022-10-31T01:02:33;100494.72;;;12.52;95.26
72570;BME280;60594;50.204;8.844;2022-10-31T01:05:00;100506.16;;;12.43;95.38
72570;BME280;60594;50.204;8.844;2022-10-31T01:07:30;100508.06;;;12.52;92.99
72570;BME280;60594;50.204;8.844;2022-10-31T01:09:56;100517.22;;;12.49;92.20
72570;BME280;60594;50.204;8.844;2022-10-31T01:12:22;100509.34;;;12.37;92.62
72570;BME280;60594;50.204;8.844;2022-10-31T01:14:50;100506.72;;;12.26;93.48
72570;BME280;60594;50.204;8.844;2022-10-31T01:17:18;100501.44;;;12.04;94.37
72570;BME280;60594;50.204;8.844;2022-10-31T01:19:46;100503.00;;;12.06;94.82
72570;BME280;60594;50.204;8.844;2022-10-31T01:22:14;100503.72;;;12.08;95.30
72570;BME280;60594;50.204;8.844;2022-10-31T01:24:40;100505.22;;;11.90;95.17
72570;BME280;60594;50.204;8.844;2022-10-31T01:27:07;100490.25;;;11.99;96.46
72570;BME280;60594;50.204;8.844;2022-10-31T01:29:33;100505.06;;;12.03;96.04
72570;BME280;60594;50.204;8.844;2022-10-31T01:32:00;100499.25;;;11.98;96.24
72570;BME280;60594;50.204;8.844;2022-10-31T01:34:27;100500.56;;;12.03;95.95
72570;BME280;60594;50.204;8.844;2022-10-31T01:36:54;100500.13;;;11.76;96.23
72570;BME280;60594;50.204;8.844;2022-10-31T01:39:22;100504.97;;;11.82;95.76
72570;BME280;60594;50.204;8.844;2022-10-31T01:41:53;100500.38;;;11.84;95.44
72570;BME280;60594;50.204;8.844;2022-10-31T01:46:46;100499.25;;;11.98;93.68
72570;BME280;60594;50.204;8.844;2022-10-31T01:51:51;100488.72;;;11.74;94.48
72570;BME280;60594;50.204;8.844;2022-10-31T01:54:21;100492.38;;;11.73;94.97
72570;BME280;60594;50.204;8.844;2022-10-31T01:56:50;100492.00;;;11.67;95.47
72570;BME280;60594;50.204;8.844;2022-10-31T01:59:20;100485.09;;;11.64;96.43
72570;BME280;60594;50.204;8.844;2022-10-31T02:01:50;100487.38;;;11.69;96.22
72570;BME280;60594;50.204;8.844;2022-10-31T02:04:18;100486.03;;;11.74;96.29
72570;BME280;60594;50.204;8.844;2022-10-31T02:06:52;100476.69;;;11.80;95.74
72570;BME280;60594;50.204;8.844;2022-10-31T02:09:20;100478.41;;;11.81;95.69
72570;BME280;60594;50.204;8.844;2022-10-31T02:11:52;100483.47;;;11.95;95.10
72570;BME280;60594;50.204;8.844;2022-10-31T02:14:24;100481.31;;;11.89;94.34
72570;BME280;60594;50.204;8.844;2022-10-31T02:16:53;100483.00;;;11.79;95.55
72570;BME280;60594;50.204;8.844;2022-10-31T02:19:40;100481.53;;;11.86;95.23
72570;BME280;60594;50.204;8.844;2022-10-31T02:25:59;100477.91;;;11.87;95.43
72570;BME280;60594;50.204;8.844;2022-10-31T02:28:46;100488.09;;;11.93;92.92
72570;BME280;60594;50.204;8.844;2022-10-31T02:32:02;100482.66;;;11.83;92.74
72570;BME280;60594;50.204;8.844;2022-10-31T02:34:37;100475.00;;;11.57;93.43
72570;BME280;60594;50.204;8.844;2022-10-31T02:37:21;100483.13;;;11.55;94.59
72570;BME280;60594;50.204;8.844;2022-10-31T02:43:19;100492.69;;;11.58;93.04
72570;BME280;60594;50.204;8.844;2022-10-31T02:45:58;100489.31;;;11.56;92.42
72570;BME280;60594;50.204;8.844;2022-10-31T02:48:33;100486.53;;;11.46;93.63
72570;BME280;60594;50.204;8.844;2022-10-31T02:51:02;100490.41;;;11.31;94.01
72570;BME280;60594;50.204;8.844;2022-10-31T02:53:34;100497.63;;;10.96;95.90
72570;BME280;60594;50.204;8.844;2022-10-31T02:56:05;100486.97;;;10.62;98.02
72570;BME280;60594;50.204;8.844;2022-10-31T02:58:38;100487.63;;;10.65;98.89
72570;BME280;60594;50.204;8.844;2022-10-31T03:01:32;100485.94;;;10.86;97.50
72570;BME280;60594;50.204;8.844;2022-10-31T03:07:25;100482.28;;;11.22;95.82
72570;BME280;60594;50.204;8.844;2022-10-31T03:15:45;100492.06;;;11.10;97.07
72570;BME280;60594;50.204;8.844;2022-10-31T03:20:51;100484.56;;;11.15;95.79
72570;BME280;60594;50.204;8.844;2022-10-31T03:23:22;100489.03;;;10.93;95.45
72570;BME280;60594;50.204;8.844;2022-10-31T03:25:53;100492.63;;;10.46;96.46
72570;BME280;60594;50.204;8.844;2022-10-31T03:28:29;100492.94;;;9.94;97.54
72570;BME280;60594;50.204;8.844;2022-10-31T03:30:58;100482.16;;;9.96;98.23
72570;BME280;60594;50.204;8.844;2022-10-31T03:33:30;100481.25;;;10.20;98.20
72570;BME280;60594;50.204;8.844;2022-10-31T03:35:59;100476.59;;;10.35;97.44
72570;BME280;60594;50.204;8.844;2022-10-31T03:38:29;100482.66;;;10.37;98.53
72570;BME280;60594;50.204;8.844;2022-10-31T03:40:58;100482.25;;;10.54;97.88
72570;BME280;60594;50.204;8.844;2022-10-31T03:43:29;100479.63;;;10.65;96.74
72570;BME280;60594;50.204;8.844;2022-10-31T03:45:58;100478.91;;;10.74;95.97
72570;BME280;60594;50.204;8.844;2022-10-31T03:48:25;100471.94;;;10.50;96.73
72570;BME280;60594;50.204;8.844;2022-10-31T03:53:36;100480.13;;;10.81;96.45
72570;BME280;60594;50.204;8.844;2022-10-31T03:56:19;100480.78;;;10.85;96.34
72570;BME280;60594;50.204;8.844;2022-10-31T03:58:56;100475.69;;;10.93;96.06
72570;BME280;60594;50.204;8.844;2022-10-31T04:01:25;100478.72;;;10.99;94.97
72570;BME280;60594;50.204;8.844;2022-10-31T04:03:53;100483.56;;;10.83;95.69
72570;BME280;60594;50.204;8.844;2022-10-31T04:06:20;100478.69;;;10.77;97.28
72570;BME280;60594;50.204;8.844;2022-10-31T04:08:52;100477.97;;;10.86;97.43
72570;BME280;60594;50.204;8.844;2022-10-31T04:11:23;100477.38;;;10.94;96.20
72570;BME280;60594;50.204;8.844;2022-10-31T04:14:17;100477.72;;;10.89;96.41
72570;BME280;60594;50.204;8.844;2022-10-31T04:16:44;100471.69;;;10.98;96.98
72570;BME280;60594;50.204;8.844;2022-10-31T04:19:12;100469.41;;;11.05;95.87
72570;BME280;60594;50.204;8.844;2022-10-31T04:21:40;100471.34;;;11.14;95.49
72570;BME280;60594;50.204;8.844;2022-10-31T04:24:11;100466.00;;;11.14;95.63
72570;BME280;60594;50.204;8.844;2022-10-31T04:27:04;100468.19;;;11.20;95.71
72570;BME280;60594;50.204;8.844;2022-10-31T04:29:30;100462.97;;;11.18;96.06
72570;BME280;60594;50.204;8.844;2022-10-31T04:31:58;100465.28;;;11.12;96.91
72570;BME280;60594;50.204;8.844;2022-10-31T04:34:24;100468.91;;;11.00;97.33
72570;BME280;60594;50.204;8.844;2022-10-31T04:36:51;100468.50;;;10.82;97.89
72570;BME280;60594;50.204;8.844;2022-10-31T04:39:19;100462.34;;;10.93;97.94
72570;BME280;60594;50.204;8.844;2022-10-31T04:42:00;100461.97;;;10.97;97.01
72570;BME280;60594;50.204;8.844;2022-10-31T04:44:29;100476.41;;;11.06;95.60
72570;BME280;60594;50.204;8.844;2022-10-31T04:47:00;100485.75;;;11.11;94.68
72570;BME280;60594;50.204;8.844;2022-10-31T04:49:26;100482.63;;;11.06;93.75
72570;BME280;60594;50.204;8.844;2022-10-31T04:51:53;100487.19;;;10.93;94.08
72570;BME280;60594;50.204;8.844;2022-10-31T04:54:21;100495.16;;;10.82;94.42
72570;BME280;60594;50.204;8.844;2022-10-31T04:57:06;100489.22;;;10.79;95.14
72570;BME280;60594;50.204;8.844;2022-10-31T04:59:33;100490.56;;;10.84;95.04
72570;BME280;60594;50.204;8.844;2022-10-31T05:02:00;100489.94;;;10.81;95.77
72570;BME280;60594;50.204;8.844;2022-10-31T05:04:46;100489.94;;;10.81;96.19
72570;BME280;60594;50.204;8.844;2022-10-31T05:07:12;100487.53;;;10.78;96.41
72570;BME280;60594;50.204;8.844;2022-10-31T05:09:38;100494.75;;;10.65;94.61
72570;BME280;60594;50.204;8.844;2022-10-31T05:12:05;100493.50;;;10.58;94.19
72570;BME280;60594;50.204;8.844;2022-10-31T05:14:50;100486.44;;;10.46;94.95
72570;BME280;60594;50.204;8.844;2022-10-31T05:17:40;100485.69;;;10.43;97.07
72570;BME280;60594;50.204;8.844;2022-10-31T05:20:38;100479.88;;;10.15;95.74
72570;BME280;60594;50.204;8.844;2022-10-31T05:23:27;100478.22;;;9.65;96.73
72570;BME280;60594;50.204;8.844;2022-10-31T05:25:54;100472.00;;;9.41;98.86
72570;BME280;60594;50.204;8.844;2022-10-31T05:28:20;100469.88;;;9.21;99.97
72570;BME280;60594;50.204;8.844;2022-10-31T05:30:47;100465.28;;;9.48;100.00
72570;BME280;60594;50.204;8.844;2022-10-31T05:33:16;100476.94;;;9.58;100.00
72570;BME280;60594;50.204;8.844;2022-10-31T05:36:01;100459.88;;;9.73;99.99
72570;BME280;60594;50.204;8.844;2022-10-31T05:38:33;100454.19;;;9.90;99.89
72570;BME280;60594;50.204;8.844;2022-10-31T05:41:08;100450.91;;;10.10;97.46
72570;BME280;60594;50.204;8.844;2022-10-31T05:43:36;100457.59;;;10.16;96.97
72570;BME280;60594;50.204;8.844;2022-10-31T05:46:05;100457.16;;;10.22;97.13
72570;BME280;60594;50.204;8.844;2022-10-31T05:48:51;100450.75;;;10.24;96.06
72570;BME280;60594;50.204;8.844;2022-10-31T05:51:36;100460.22;;;10.28;96.20
72570;BME280;60594;50.204;8.844;2022-10-31T05:54:04;100459.88;;;10.33;95.86
72570;BME280;60594;50.204;8.844;2022-10-31T05:56:30;100466.44;;;10.40;94.85
72570;BME280;60594;50.204;8.844;2022-10-31T05:58:57;100466.22;;;10.43;94.19
72570;BME280;60594;50.204;8.844;2022-10-31T06:01:26;100470.91;;;10.39;94.29
72570;BME280;60594;50.204;8.844;2022-10-31T06:03:52;100469.94;;;10.29;95.06
72570;BME280;60594;50.204;8.844;2022-10-31T06:06:20;100473.41;;;10.30;95.08
72570;BME280;60594;50.204;8.844;2022-10-31T06:08:46;100474.63;;;10.26;94.70
72570;BME280;60594;50.204;8.844;2022-10-31T06:11:17;100465.09;;;10.11;95.63
72570;BME280;60594;50.204;8.844;2022-10-31T06:14:05;100465.19;;;9.73;97.26
72570;BME280;60594;50.204;8.844;2022-10-31T06:16:55;100468.72;;;9.74;98.34
72570;BME280;60594;50.204;8.844;2022-10-31T06:19:41;100458.03;;;9.50;98.75
72570;BME280;60594;50.204;8.844;2022-10-31T06:22:09;100471.56;;;9.35;100.00
72570;BME280;60594;50.204;8.844;2022-10-31T06:24:44;100468.97;;;9.58;99.39
72570;BME280;60594;50.204;8.844;2022-10-31T06:27:27;100471.28;;;9.75;98.57
72570;BME280;60594;50.204;8.844;2022-10-31T06:29:55;100472.69;;;9.68;98.12
72570;BME280;60594;50.204;8.844;2022-10-31T06:32:28;100480.59;;;9.45;99.19
72570;BME280;60594;50.204;8.844;2022-10-31T06:34:56;100469.75;;;9.35;99.77
72570;BME280;60594;50.204;8.844;2022-10-31T06:37:23;100464.81;;;9.54;99.37
72570;BME280;60594;50.204;8.844;2022-10-31T06:39:50;100478.94;;;9.80;98.21
72570;BME280;60594;50.204;8.844;2022-10-31T06:42:17;100462.66;;;9.95;96.36
72570;BME280;60594;50.204;8.844;2022-10-31T06:44:44;100472.88;;;10.01;96.18
72570;BME280;60594;50.204;8.844;2022-10-31T06:47:39;100479.00;;;9.91;96.28
72570;BME280;60594;50.204;8.844;2022-10-31T06:50:08;100477.25;;;9.66;96.76
72570;BME280;60594;50.204;8.844;2022-10-31T06:52:36;100480.72;;;9.43;98.70
72570;BME280;60594;50.204;8.844;2022-10-31T06:55:04;100478.91;;;9.31;99.50
72570;BME280;60594;50.204;8.844;2022-10-31T06:57:34;100480.97;;;9.28;100.00
72570;BME280;60594;50.204;8.844;2022-10-31T07:00:01;100481.25;;;9.48;100.00
72570;BME280;60594;50.204;8.844;2022-10-31T07:02:59;100492.50;;;9.52;99.86
72570;BME280;60594;50.204;8.844;2022-10-31T07:05:28;100493.47;;;9.51;100.00
72570;BME280;60594;50.204;8.844;2022-10-31T07:08:00;100490.13;;;9.72;100.00
72570;BME280;60594;50.204;8.844;2022-10-31T07:10:31;100499.44;;;9.90;99.16
72570;BME280;60594;50.204;8.844;2022-10-31T07:13:04;100495.31;;;9.86;99.58
72570;BME280;60594;50.204;8.844;2022-10-31T07:15:35;100487.88;;;9.66;100.00
72570;BME280;60594;50.204;8.844;2022-10-31T07:18:03;100485.38;;;9.88;100.00
72570;BME280;60594;50.204;8.844;2022-10-31T07:20:30;100494.78;;;10.05;100.00
72570;BME280;60594;50.204;8.844;2022-10-31T07:22:59;100484.06;;;9.94;100.00
72570;BME280;60594;50.204;8.844;2022-10-31T07:25:28;100495.16;;;10.00;100.00
72570;BME280;60594;50.204;8.844;2022-10-31T07:28:06;100503.81;;;10.27;99.08
72570;BME280;60594;50.204;8.844;2022-10-31T07:30:33;100498.31;;;10.42;97.92
72570;BME280;60594;50.204;8.844;2022-10-31T07:33:02;100495.47;;;10.56;96.50
72570;BME280;60594;50.204;8.844;2022-10-31T07:35:52;100493.03;;;10.53;96.41
72570;BME280;60594;50.204;8.844;2022-10-31T07:38:22;100488.03;;;10.24;97.34
72570;BME280;60594;50.204;8.844;2022-10-31T07:40:51;100494.06;;;10.03;98.25
72570;BME280;60594;50.204;8.844;2022-10-31T07:43:19;100489.13;;;10.22;98.61
72570;BME280;60594;50.204;8.844;2022-10-31T07:46:09;100486.56;;;10.44;96.79
72570;BME280;60594;50.204;8.844;2022-10-31T07:49:03;100488.09;;;9.99;98.62
72570;BME280;60594;50.204;8.844;2022-10-31T07:51:59;100486.38;;;9.75;100.00
72570;BME280;60594;50.204;8.844;2022-10-31T07:54:44;100489.53;;;9.92;100.00
72570;BME280;60594;50.204;8.844;2022-10-31T07:57:13;100496.19;;;10.10;99.48
72570;BME280;60594;50.204;8.844;2022-10-31T07:59:39;100494.88;;;10.16;99.93
72570;BME280;60594;50.204;8.844;2022-10-31T08:02:08;100494.28;;;10.12;100.00
72570;BME280;60594;50.204;8.844;2022-10-31T08:04:47;100498.75;;;10.12;100.00
72570;BME280;60594;50.204;8.844;2022-10-31T08:07:35;100495.09;;;10.36;100.00
72570;BME280;60594;50.204;8.844;2022-10-31T08:10:05;100489.72;;;10.49;100.00
72570;BME280;60594;50.204;8.844;2022-10-31T08:12:34;100495.00;;;10.38;100.00
72570;BME280;60594;50.204;8.844;2022-10-31T08:15:01;100496.31;;;10.32;100.00
72570;BME280;60594;50.204;8.844;2022-10-31T08:17:28;100495.44;;;10.21;100.00
72570;BME280;60594;50.204;8.844;2022-10-31T08:19:58;100495.38;;;10.33;100.00
72570;BME280;60594;50.204;8.844;2022-10-31T08:22:40;100500.69;;;10.57;100.00
72570;BME280;60594;50.204;8.844;2022-10-31T08:25:06;100490.91;;;10.45;100.00
72570;BME280;60594;50.204;8.844;2022-10-31T08:27:33;100494.09;;;10.50;100.00
72570;BME280;60594;50.204;8.844;2022-10-31T08:30:01;100486.94;;;10.85;100.00
72570;BME280;60594;50.204;8.844;2022-10-31T08:32:27;100485.66;;;11.13;99.39
72570;BME280;60594;50.204;8.844;2022-10-31T08:35:29;100490.13;;;11.23;99.30
72570;BME280;60594;50.204;8.844;2022-10-31T08:38:21;100474.00;;;11.03;100.00
72570;BME280;60594;50.204;8.844;2022-10-31T08:40:48;100479.22;;;11.04;100.00
72570;BME280;60594;50.204;8.844;2022-10-31T08:43:17;100473.53;;;11.20;100.00
72570;BME280;60594;50.204;8.844;2022-10-31T08:45:44;100478.88;;;11.20;100.00
72570;BME280;60594;50.204;8.844;2022-10-31T08:48:21;100480.63;;;10.86;100.00
72570;BME280;60594;50.204;8.844;2022-10-31T08:50:48;100476.00;;;10.77;100.00
72570;BME280;60594;50.204;8.844;2022-10-31T08:53:17;100466.38;;;10.98;100.00
72570;BME280;60594;50.204;8.844;2022-10-31T08:55:47;100474.63;;;11.17;100.00
72570;BME280;60594;50.204;8.844;2022-10-31T08:58:25;100471.84;;;11.41;99.38
72570;BME280;60594;50.204;8.844;2022-10-31T09:00:59;100466.28;;;11.55;98.50
72570;BME280;60594;50.204;8.844;2022-10-31T09:03:28;100464.69;;;11.63;98.16
72570;BME280;60594;50.204;8.844;2022-10-31T09:05:57;100460.81;;;11.67;97.72
72570;BME280;60594;50.204;8.844;2022-10-31T09:08:24;100467.47;;;11.73;98.00
72570;BME280;60594;50.204;8.844;2022-10-31T09:10:51;100461.19;;;11.74;97.86
72570;BME280;60594;50.204;8.844;2022-10-31T09:13:30;100461.06;;;11.75;98.41
72570;BME280;60594;50.204;8.844;2022-10-31T09:16:27;100460.91;;;11.77;97.86
72570;BME280;60594;50.204;8.844;2022-10-31T09:18:54;100462.75;;;11.76;97.51
72570;BME280;60594;50.204;8.844;2022-10-31T09:21:21;100466.00;;;11.80;98.15
72570;BME280;60594;50.204;8.844;2022-10-31T09:23:47;100461.31;;;11.72;97.31
72570;BME280;60594;50.204;8.844;2022-10-31T09:26:15;100460.31;;;11.73;97.84
72570;BME280;60594;50.204;8.844;2022-10-31T09:29:02;100451.56;;;11.82;97.74
72570;BME280;60594;50.204;8.844;2022-10-31T09:31:29;100448.84;;;11.93;98.35
72570;BME280;60594;50.204;8.844;2022-10-31T09:34:24;100445.78;;;12.09;98.80
72570;BME280;60594;50.204;8.844;2022-10-31T09:37:09;100447.75;;;12.38;97.15
72570;BME280;60594;50.204;8.844;2022-10-31T09:39:36;100443.25;;;12.80;94.42
72570;BME280;60594;50.204;8.844;2022-10-31T09:45:10;100437.09;;;13.69;92.07
72570;BME280;60594;50.204;8.844;2022-10-31T09:47:56;100443.34;;;13.89;89.14
72570;BME280;60594;50.204;8.844;2022-10-31T09:50:47;100434.78;;;14.05;89.56
72570;BME280;60594;50.204;8.844;2022-10-31T09:53:45;100437.88;;;14.19;88.48
72570;BME280;60594;50.204;8.844;2022-10-31T09:56:20;100425.09;;;14.23;87.65
72570;BME280;60594;50.204;8.844;2022-10-31T09:58:55;100419.66;;;14.04;89.83
72570;BME280;60594;50.204;8.844;2022-10-31T10:01:48;100414.75;;;13.99;89.57
72570;BME280;60594;50.204;8.844;2022-10-31T10:07:52;100422.78;;;14.18;88.73
72570;BME280;60594;50.204;8.844;2022-10-31T10:10:49;100428.59;;;14.33;88.67
72570;BME280;60594;50.204;8.844;2022-10-31T10:14:01;100426.63;;;14.44;88.53
72570;BME280;60594;50.204;8.844;2022-10-31T10:19:24;100415.06;;;14.44;88.39
72570;BME280;60594;50.204;8.844;2022-10-31T10:22:12;100419.00;;;14.30;88.39
72570;BME280;60594;50.204;8.844;2022-10-31T10:25:14;100419.84;;;14.21;89.54
72570;BME280;60594;50.204;8.844;2022-10-31T10:30:45;100414.38;;;14.23;90.21
72570;BME280;60594;50.204;8.844;2022-10-31T10:33:20;100414.63;;;14.20;90.87
72570;BME280;60594;50.204;8.844;2022-10-31T10:35:53;100408.13;;;14.13;90.49
72570;BME280;60594;50.204;8.844;2022-10-31T10:41:08;100403.75;;;14.21;92.36
72570;BME280;60594;50.204;8.844;2022-10-31T10:43:37;100407.75;;;14.36;92.52
72570;BME280;60594;50.204;8.844;2022-10-31T10:49:01;100399.25;;;14.50;91.57
72570;BME280;60594;50.204;8.844;2022-10-31T10:57:19;100383.88;;;14.43;92.12
72570;BME280;60594;50.204;8.844;2022-10-31T10:59:48;100376.53;;;14.45;92.17
72570;BME280;60594;50.204;8.844;2022-10-31T11:02:22;100374.28;;;14.50;92.53
72570;BME280;60594;50.204;8.844;2022-10-31T11:04:52;100376.94;;;14.59;91.69
72570;BME280;60594;50.204;8.844;2022-10-31T11:07:20;100373.25;;;14.60;90.75
72570;BME280;60594;50.204;8.844;2022-10-31T11:09:47;100374.25;;;14.59;91.99
72570;BME280;60594;50.204;8.844;2022-10-31T11:12:21;100370.88;;;14.67;93.98
72570;BME280;60594;50.204;8.844;2022-10-31T11:15:00;100366.28;;;14.77;93.39
72570;BME280;60594;50.204;8.844;2022-10-31T11:17:33;100363.19;;;14.81;92.62
72570;BME280;60594;50.204;8.844;2022-10-31T11:22:40;100350.78;;;15.07;93.99
72570;BME280;60594;50.204;8.844;2022-10-31T11:25:24;100347.34;;;15.24;92.84
72570;BME280;60594;50.204;8.844;2022-10-31T11:28:10;100341.22;;;15.32;93.47
72570;BME280;60594;50.204;8.844;2022-10-31T11:33:21;100330.72;;;15.65;91.26
72570;BME280;60594;50.204;8.844;2022-10-31T11:35:49;100325.13;;;15.76;90.10
72570;BME280;60594;50.204;8.844;2022-10-31T11:38:18;100327.53;;;15.79;89.92
72570;BME280;60594;50.204;8.844;2022-10-31T11:40:57;100321.38;;;15.87;89.49
72570;BME280;60594;50.204;8.844;2022-10-31T11:43:25;100323.97;;;15.96;90.39
72570;BME280;60594;50.204;8.844;2022-10-31T11:45:53;100333.97;;;16.04;90.14
72570;BME280;60594;50.204;8.844;2022-10-31T11:48:23;100321.44;;;15.95;90.80
72570;BME280;60594;50.204;8.844;2022-10-31T11:50:54;100305.56;;;16.01;90.04
72570;BME280;60594;50.204;8.844;2022-10-31T11:53:34;100309.63;;;16.05;91.12
72570;BME280;60594;50.204;8.844;2022-10-31T11:56:21;100305.31;;;16.12;90.54
72570;BME280;60594;50.204;8.844;2022-10-31T11:58:55;100310.44;;;16.23;90.00
72570;BME280;60594;50.204;8.844;2022-10-31T12:01:26;100308.63;;;16.32;90.20
72570;BME280;60594;50.204;8.844;2022-10-31T12:04:09;100295.03;;;16.33;89.31
72570;BME280;60594;50.204;8.844;2022-10-31T12:06:38;100294.50;;;16.47;88.33
72570;BME280;60594;50.204;8.844;2022-10-31T12:09:35;100283.13;;;16.53;89.23
72570;BME280;60594;50.204;8.844;2022-10-31T12:14:57;100274.22;;;16.61;85.16
72570;BME280;60594;50.204;8.844;2022-10-31T12:17:47;100268.38;;;16.65;84.30
72570;BME280;60594;50.204;8.844;2022-10-31T12:32:13;100252.56;;;16.96;84.26
72570;BME280;60594;50.204;8.844;2022-10-31T12:40:30;100236.03;;;16.91;83.95
72570;BME280;60594;50.204;8.844;2022-10-31T12:45:54;100233.16;;;16.92;82.26
72570;BME280;60594;50.204;8.844;2022-10-31T12:51:21;100232.94;;;16.78;83.93
72570;BME280;60594;50.204;8.844;2022-10-31T12:59:27;100230.00;;;16.97;83.50
72570;BME280;60594;50.204;8.844;2022-10-31T13:04:51;100230.72;;;17.15;83.91
72570;BME280;60594;50.204;8.844;2022-10-31T13:07:32;100220.13;;;17.22;81.78
72570;BME280;60594;50.204;8.844;2022-10-31T13:10:20;100224.88;;;17.28;83.10
72570;BME280;60594;50.204;8.844;2022-10-31T13:12:55;100226.72;;;17.35;81.92
72570;BME280;60594;50.204;8.844;2022-10-31T13:15:27;100221.34;;;17.35;81.47
72570;BME280;60594;50.204;8.844;2022-10-31T13:17:57;100204.34;;;17.35;82.89
72570;BME280;60594;50.204;8.844;2022-10-31T13:20:32;100196.09;;;17.36;81.27
72570;BME280;60594;50.204;8.844;2022-10-31T13:23:08;100184.63;;;17.34;80.86
72570;BME280;60594;50.204;8.844;2022-10-31T13:25:42;100179.72;;;17.22;84.09
72570;BME280;60594;50.204;8.844;2022-10-31T13:28:31;100168.13;;;17.21;83.91
72570;BME280;60594;50.204;8.844;2022-10-31T13:30:59;100171.84;;;17.36;82.27
72570;BME280;60594;50.204;8.844;2022-10-31T13:33:32;100162.28;;;17.42;81.43
72570;BME280;60594;50.204;8.844;2022-10-31T13:41:44;100149.66;;;17.50;82.05
72570;BME280;60594;50.204;8.844;2022-10-31T13:44:22;100131.97;;;17.56;83.54
72570;BME280;60594;50.204;8.844;2022-10-31T13:46:54;100140.06;;;17.64;82.28
72570;BME280;60594;50.204;8.844;2022-10-31T13:54:42;100135.34;;;17.66;81.84
72570;BME280;60594;50.204;8.844;2022-10-31T13:57:17;100127.56;;;17.71;80.98
72570;BME280;60594;50.204;8.844;2022-10-31T14:00:00;100124.06;;;17.70;80.31
72570;BME280;60594;50.204;8.844;2022-10-31T14:02:31;100128.91;;;17.67;81.45
72570;BME280;60594;50.204;8.844;2022-10-31T14:05:22;100127.22;;;17.74;80.86
72570;BME280;60594;50.204;8.844;2022-10-31T14:07:52;100124.88;;;17.79;81.49
72570;BME280;60594;50.204;8.844;2022-10-31T14:10:27;100120.16;;;17.81;81.28
72570;BME280;60594;50.204;8.844;2022-10-31T14:13:05;100114.09;;;17.79;81.19
72570;BME280;60594;50.204;8.844;2022-10-31T14:15:33;100119.16;;;17.66;81.36
72570;BME280;60594;50.204;8.844;2022-10-31T14:18:03;100115.81;;;17.64;82.47
72570;BME280;60594;50.204;8.844;2022-10-31T14:20:40;100120.84;;;17.59;82.04
72570;BME280;60594;50.204;8.844;2022-10-31T14:28:59;100111.94;;;17.58;82.61
72570;BME280;60594;50.204;8.844;2022-10-31T14:31:52;100104.03;;;17.57;83.34
72570;BME280;60594;50.204;8.844;2022-10-31T14:34:26;100107.91;;;17.54;85.29
72570;BME280;60594;50.204;8.844;2022-10-31T14:48:15;100079.72;;;17.33;85.19
72570;BME280;60594;50.204;8.844;2022-10-31T14:50:56;100078.38;;;17.29;85.92
72570;BME280;60594;50.204;8.844;2022-10-31T14:55:54;100073.16;;;17.27;86.73
72570;BME280;60594;50.204;8.844;2022-10-31T14:58:28;100071.16;;;17.29;87.18
72570;BME280;60594;50.204;8.844;2022-10-31T15:01:00;100074.69;;;17.38;84.07
72570;BME280;60594;50.204;8.844;2022-10-31T15:03:33;100091.69;;;17.38;84.17
72570;BME280;60594;50.204;8.844;2022-10-31T15:06:14;100094.38;;;17.30;83.80
72570;BME280;60594;50.204;8.844;2022-10-31T15:08:50;100090.66;;;17.31;84.63
72570;BME280;60594;50.204;8.844;2022-10-31T15:11:22;100092.56;;;17.47;83.43
72570;BME280;60594;50.204;8.844;2022-10-31T15:13:58;100099.63;;;17.56;82.77
72570;BME280;60594;50.204;8.844;2022-10-31T15:16:32;100091.88;;;17.61;83.20
72570;BME280;60594;50.204;8.844;2022-10-31T15:19:03;100093.56;;;17.62;83.88
72570;BME280;60594;50.204;8.844;2022-10-31T15:21:31;100084.63;;;17.61;84.00
72570;BME280;60594;50.204;8.844;2022-10-31T15:23:59;100089.19;;;17.53;85.29